Davenport Municipal Airport

About
Name: Davenport Municipal Airport
Identifier:  DVN/KDVN
Local Time:  17. Sep 05:20 CDT
Location
Statistics
Flights per Day:
0 flights
Distance: 229km (142mi)
Flights delayed:
0% (0 flights per day delayed)
Delay Average: 13 minutes
Current Weather
 17 C (Humidity: 93%)
  6kt (11km/h / 6mph) from 110°
  4km (3 mi.)
 Mist
 METAR KDVN 170952Z AUTO 11006KT 3SM BR CLR 17/16 A3012 RMK AO2 SLP193 T01720161

Current Delays

Departures
N/A
Arrivals
N/A

Destinations

Top Destinations
Airport Flights
per week
Seats
per week
  Chicago (PWK) 0 - 0 0

Airlines & Planes

Top Airlines
Airline Flights
per Day
Seats
per Day
Northwest Flyers 0 -
Top Plane Types
Model Flights Seats
Beech B200 Super King Air 0.0/day - 0